Cole Camp, MO

7:15 AM CDT on October 24, 2014 (GMT -0500)
cole camp Lincoln | Change Station
CLOSE
Current Station
Personal Weather Station
Location: Cole Camp, MO
Elevation: 905 ft
Nearby Weather Stations

Elev 905 ft 38.40 °N, 93.20 °W | Updated 5 minutes ago

Overcast
Overcast
55.7 °F
Feels Like 55.7 °F
N
0.0
Wind Variable Wind from South
Gusts 0.0 mph

Today
High -- | Low -- °F
--% Chance of Precip.
Yesterday
High -- | Low -- °F
Precip. -- in
7:30 AM 6:22 PM
New Moon, 0% visible
Pressure 30.10 in
Visibility 5.0 miles
Clouds Overcast 400 ft
Dew Point 55 °F
Humidity 96%
Rainfall 0.00 in
Snow Depth Not available.
UV 0 out of 12
Pollen 2.50 out of 12
Air Quality Not available.
Flu Activity No Activity
SPECI KDMO 241200Z AUTO 22005KT 5SM BR OVC004 15/13 A3010 RMK AO2 T01500133

More Conditions Fewer Conditions

Pressure 30.10 in
Visibility 5.0 miles
Clouds Overcast 400 ft
Dew Point 55 °F
Humidity 96%
Rainfall 0.00 in
Snow Depth Not available.
UV 0 out of 12
Pollen 2.50 out of 12
Air Quality Not available.
Flu Activity No Activity
SPECI KDMO 241200Z AUTO 22005KT 5SM BR OVC004 15/13 A3010 RMK AO2 T01500133

More Conditions Fewer Conditions

10-Day Weather Forecast

Almanac

Astronomy

Oct. 24, 2014 Rise Set
Actual Time 7:30 AM CDT 6:22 PM CDT
Civil Twilight 7:03 AM CDT 6:49 PM CDT
Nautical Twilight 6:32 AM CDT 7:20 PM CDT
Astronomical Twilight 6:02 AM CDT 7:51 PM CDT
Moon 8:10 AM CDT 7:03 PM CDT
Length of Visible Light 11h 45m
Length of Day
10h 51m
Tomorrow will be 2m 18s shorter.
New Moon, 0% of the Moon is Illuminated
Today
New Moon
Oct 30
First Quarter
Nov 6
Full
Nov 14
Last Quarter
Nov 22
New

Today's Extremes

State Highs State Lows

Community

WunderPhotos

Upload Photos

1,764,530 photos uploaded!

Nearby

Snow Depth

Station Depth Elevation
No new snow has been reported.

Earthquake Activity

City Distance Mag. Time & Date
No recent earthquake activity has been reported nearby.
Minimum magnitude displayed is 2.5.

Coastal Water Temperatures

Place Temperature
No Stations Reporting

Nearby Weather Stations